sensor_id;sensor_type;location;lat;lon;timestamp;P1;durP1;ratioP1;P2;durP2;ratioP2
65031;SDS011;51593;55.714;37.436;2022-08-21T00:00:28;53.53;;;35.97;;
65031;SDS011;51593;55.714;37.436;2022-08-21T00:02:59;55.88;;;36.35;;
65031;SDS011;51593;55.714;37.436;2022-08-21T00:05:26;53.42;;;34.78;;
65031;SDS011;51593;55.714;37.436;2022-08-21T00:07:53;53.97;;;36.58;;
65031;SDS011;51593;55.714;37.436;2022-08-21T00:10:19;56.58;;;36.67;;
65031;SDS011;51593;55.714;37.436;2022-08-21T00:12:45;56.03;;;36.05;;
65031;SDS011;51593;55.714;37.436;2022-08-21T00:15:14;56.60;;;36.80;;
65031;SDS011;51593;55.714;37.436;2022-08-21T00:17:41;51.05;;;36.90;;
65031;SDS011;51593;55.714;37.436;2022-08-21T00:20:08;56.38;;;37.47;;
65031;SDS011;51593;55.714;37.436;2022-08-21T00:22:35;57.88;;;37.08;;
65031;SDS011;51593;55.714;37.436;2022-08-21T00:25:01;58.42;;;38.70;;
65031;SDS011;51593;55.714;37.436;2022-08-21T00:27:29;55.17;;;37.55;;
65031;SDS011;51593;55.714;37.436;2022-08-21T00:29:55;57.00;;;38.53;;
65031;SDS011;51593;55.714;37.436;2022-08-21T00:32:21;53.58;;;38.03;;
65031;SDS011;51593;55.714;37.436;2022-08-21T00:34:50;53.35;;;39.17;;
65031;SDS011;51593;55.714;37.436;2022-08-21T00:37:17;54.97;;;37.92;;
65031;SDS011;51593;55.714;37.436;2022-08-21T00:39:43;54.85;;;38.30;;
65031;SDS011;51593;55.714;37.436;2022-08-21T00:42:09;57.38;;;39.92;;
65031;SDS011;51593;55.714;37.436;2022-08-21T00:44:43;63.25;;;40.45;;
65031;SDS011;51593;55.714;37.436;2022-08-21T00:47:10;61.13;;;41.15;;
65031;SDS011;51593;55.714;37.436;2022-08-21T00:49:37;57.13;;;40.80;;
65031;SDS011;51593;55.714;37.436;2022-08-21T00:52:03;61.47;;;41.35;;
65031;SDS011;51593;55.714;37.436;2022-08-21T00:54:31;60.78;;;40.33;;
65031;SDS011;51593;55.714;37.436;2022-08-21T00:57:02;60.17;;;40.80;;
65031;SDS011;51593;55.714;37.436;2022-08-21T00:59:32;59.35;;;40.10;;
65031;SDS011;51593;55.714;37.436;2022-08-21T01:01:59;65.05;;;41.72;;
65031;SDS011;51593;55.714;37.436;2022-08-21T01:04:25;62.63;;;39.78;;
65031;SDS011;51593;55.714;37.436;2022-08-21T01:06:50;59.90;;;40.33;;
65031;SDS011;51593;55.714;37.436;2022-08-21T01:09:19;65.78;;;39.63;;
65031;SDS011;51593;55.714;37.436;2022-08-21T01:11:45;58.65;;;38.92;;
65031;SDS011;51593;55.714;37.436;2022-08-21T01:14:12;59.88;;;39.63;;
65031;SDS011;51593;55.714;37.436;2022-08-21T01:16:39;57.97;;;38.55;;
65031;SDS011;51593;55.714;37.436;2022-08-21T01:19:06;56.65;;;39.45;;
65031;SDS011;51593;55.714;37.436;2022-08-21T01:21:33;56.45;;;40.22;;
65031;SDS011;51593;55.714;37.436;2022-08-21T01:23:59;70.03;;;40.65;;
65031;SDS011;51593;55.714;37.436;2022-08-21T01:26:44;61.90;;;41.17;;
65031;SDS011;51593;55.714;37.436;2022-08-21T01:29:15;62.15;;;41.33;;
65031;SDS011;51593;55.714;37.436;2022-08-21T01:31:46;65.68;;;41.42;;
65031;SDS011;51593;55.714;37.436;2022-08-21T01:34:11;63.53;;;41.42;;
65031;SDS011;51593;55.714;37.436;2022-08-21T01:36:37;62.45;;;41.63;;
65031;SDS011;51593;55.714;37.436;2022-08-21T01:39:04;56.97;;;41.03;;
65031;SDS011;51593;55.714;37.436;2022-08-21T01:41:30;64.47;;;40.42;;
65031;SDS011;51593;55.714;37.436;2022-08-21T01:43:56;60.28;;;40.42;;
65031;SDS011;51593;55.714;37.436;2022-08-21T01:46:22;56.25;;;38.95;;
65031;SDS011;51593;55.714;37.436;2022-08-21T01:48:48;59.60;;;40.72;;
65031;SDS011;51593;55.714;37.436;2022-08-21T01:51:14;56.33;;;38.75;;
65031;SDS011;51593;55.714;37.436;2022-08-21T01:53:40;55.15;;;37.75;;
65031;SDS011;51593;55.714;37.436;2022-08-21T01:56:07;56.40;;;38.83;;
65031;SDS011;51593;55.714;37.436;2022-08-21T01:58:34;60.83;;;39.75;;
65031;SDS011;51593;55.714;37.436;2022-08-21T02:01:20;62.42;;;39.40;;
65031;SDS011;51593;55.714;37.436;2022-08-21T02:03:46;57.58;;;37.85;;
65031;SDS011;51593;55.714;37.436;2022-08-21T02:06:13;59.72;;;38.53;;
65031;SDS011;51593;55.714;37.436;2022-08-21T02:08:42;60.55;;;36.20;;
65031;SDS011;51593;55.714;37.436;2022-08-21T02:11:08;52.30;;;36.75;;
65031;SDS011;51593;55.714;37.436;2022-08-21T02:13:34;54.50;;;36.88;;
65031;SDS011;51593;55.714;37.436;2022-08-21T02:16:00;49.40;;;35.22;;
65031;SDS011;51593;55.714;37.436;2022-08-21T02:18:26;54.35;;;36.15;;
65031;SDS011;51593;55.714;37.436;2022-08-21T02:20:52;55.05;;;36.17;;
65031;SDS011;51593;55.714;37.436;2022-08-21T02:23:17;47.80;;;33.60;;
65031;SDS011;51593;55.714;37.436;2022-08-21T02:25:46;51.85;;;34.90;;
65031;SDS011;51593;55.714;37.436;2022-08-21T02:28:12;57.15;;;35.60;;
65031;SDS011;51593;55.714;37.436;2022-08-21T02:30:41;54.25;;;33.28;;
65031;SDS011;51593;55.714;37.436;2022-08-21T02:33:11;52.92;;;34.90;;
65031;SDS011;51593;55.714;37.436;2022-08-21T02:35:38;51.70;;;33.45;;
65031;SDS011;51593;55.714;37.436;2022-08-21T02:38:08;47.65;;;32.90;;
65031;SDS011;51593;55.714;37.436;2022-08-21T02:40:38;46.13;;;32.50;;
65031;SDS011;51593;55.714;37.436;2022-08-21T02:43:06;48.70;;;32.28;;
65031;SDS011;51593;55.714;37.436;2022-08-21T02:45:41;48.92;;;31.27;;
65031;SDS011;51593;55.714;37.436;2022-08-21T02:48:19;52.50;;;31.45;;
65031;SDS011;51593;55.714;37.436;2022-08-21T02:50:51;46.20;;;31.77;;
65031;SDS011;51593;55.714;37.436;2022-08-21T02:53:37;46.20;;;30.48;;
65031;SDS011;51593;55.714;37.436;2022-08-21T02:56:04;47.92;;;31.90;;
65031;SDS011;51593;55.714;37.436;2022-08-21T02:58:40;51.85;;;30.50;;
65031;SDS011;51593;55.714;37.436;2022-08-21T03:03:35;48.72;;;30.48;;
65031;SDS011;51593;55.714;37.436;2022-08-21T03:06:06;49.63;;;31.50;;
65031;SDS011;51593;55.714;37.436;2022-08-21T03:08:33;48.33;;;31.60;;
65031;SDS011;51593;55.714;37.436;2022-08-21T03:11:00;46.85;;;30.92;;
65031;SDS011;51593;55.714;37.436;2022-08-21T03:13:26;45.33;;;29.73;;
65031;SDS011;51593;55.714;37.436;2022-08-21T03:15:53;45.22;;;30.88;;
65031;SDS011;51593;55.714;37.436;2022-08-21T03:18:19;46.65;;;29.58;;
65031;SDS011;51593;55.714;37.436;2022-08-21T03:20:45;41.63;;;28.50;;
65031;SDS011;51593;55.714;37.436;2022-08-21T03:23:12;48.78;;;29.17;;
65031;SDS011;51593;55.714;37.436;2022-08-21T03:25:38;45.20;;;29.77;;
65031;SDS011;51593;55.714;37.436;2022-08-21T03:28:05;43.33;;;28.98;;
65031;SDS011;51593;55.714;37.436;2022-08-21T03:30:35;47.50;;;29.70;;
65031;SDS011;51593;55.714;37.436;2022-08-21T03:33:01;44.05;;;28.73;;
65031;SDS011;51593;55.714;37.436;2022-08-21T03:35:28;39.67;;;28.65;;
65031;SDS011;51593;55.714;37.436;2022-08-21T03:37:54;40.03;;;28.50;;
65031;SDS011;51593;55.714;37.436;2022-08-21T03:40:20;41.47;;;27.92;;
65031;SDS011;51593;55.714;37.436;2022-08-21T03:42:47;43.15;;;27.63;;
65031;SDS011;51593;55.714;37.436;2022-08-21T03:45:16;43.50;;;28.15;;
65031;SDS011;51593;55.714;37.436;2022-08-21T03:47:53;41.28;;;27.23;;
65031;SDS011;51593;55.714;37.436;2022-08-21T03:50:24;38.70;;;26.98;;
65031;SDS011;51593;55.714;37.436;2022-08-21T03:52:51;44.22;;;26.75;;
65031;SDS011;51593;55.714;37.436;2022-08-21T03:55:17;40.72;;;27.40;;
65031;SDS011;51593;55.714;37.436;2022-08-21T03:57:43;44.20;;;28.10;;
65031;SDS011;51593;55.714;37.436;2022-08-21T04:00:09;38.95;;;26.30;;
65031;SDS011;51593;55.714;37.436;2022-08-21T04:02:38;39.58;;;26.55;;
65031;SDS011;51593;55.714;37.436;2022-08-21T04:05:04;37.17;;;25.65;;
65031;SDS011;51593;55.714;37.436;2022-08-21T04:07:30;39.13;;;26.98;;
65031;SDS011;51593;55.714;37.436;2022-08-21T04:09:56;42.15;;;27.65;;
65031;SDS011;51593;55.714;37.436;2022-08-21T04:12:22;37.20;;;26.30;;
65031;SDS011;51593;55.714;37.436;2022-08-21T04:15:13;44.40;;;27.25;;
65031;SDS011;51593;55.714;37.436;2022-08-21T04:17:39;41.50;;;26.88;;
65031;SDS011;51593;55.714;37.436;2022-08-21T04:20:09;40.88;;;26.63;;
65031;SDS011;51593;55.714;37.436;2022-08-21T04:22:35;43.92;;;27.42;;
65031;SDS011;51593;55.714;37.436;2022-08-21T04:25:01;39.05;;;27.02;;
65031;SDS011;51593;55.714;37.436;2022-08-21T04:27:26;41.03;;;28.05;;
65031;SDS011;51593;55.714;37.436;2022-08-21T04:29:52;40.80;;;27.70;;
65031;SDS011;51593;55.714;37.436;2022-08-21T04:32:22;40.90;;;25.25;;
65031;SDS011;51593;55.714;37.436;2022-08-21T04:34:49;40.22;;;27.15;;
65031;SDS011;51593;55.714;37.436;2022-08-21T04:37:14;37.70;;;27.02;;
65031;SDS011;51593;55.714;37.436;2022-08-21T04:39:41;41.22;;;27.77;;
65031;SDS011;51593;55.714;37.436;2022-08-21T04:42:07;39.83;;;27.48;;
65031;SDS011;51593;55.714;37.436;2022-08-21T04:44:34;41.70;;;27.20;;
65031;SDS011;51593;55.714;37.436;2022-08-21T04:47:00;42.72;;;28.02;;
65031;SDS011;51593;55.714;37.436;2022-08-21T04:49:25;43.63;;;29.05;;
65031;SDS011;51593;55.714;37.436;2022-08-21T04:52:01;39.92;;;28.23;;
65031;SDS011;51593;55.714;37.436;2022-08-21T04:54:27;45.67;;;30.08;;
65031;SDS011;51593;55.714;37.436;2022-08-21T04:56:54;49.80;;;29.60;;
65031;SDS011;51593;55.714;37.436;2022-08-21T04:59:24;40.83;;;27.98;;
65031;SDS011;51593;55.714;37.436;2022-08-21T05:01:51;39.10;;;29.17;;
65031;SDS011;51593;55.714;37.436;2022-08-21T05:04:21;46.13;;;29.70;;
65031;SDS011;51593;55.714;37.436;2022-08-21T05:06:49;42.92;;;30.30;;
65031;SDS011;51593;55.714;37.436;2022-08-21T05:09:16;50.03;;;31.98;;
65031;SDS011;51593;55.714;37.436;2022-08-21T05:11:43;51.35;;;31.77;;
65031;SDS011;51593;55.714;37.436;2022-08-21T05:14:10;46.80;;;32.72;;
65031;SDS011;51593;55.714;37.436;2022-08-21T05:16:36;47.40;;;32.10;;
65031;SDS011;51593;55.714;37.436;2022-08-21T05:19:04;50.58;;;32.85;;
65031;SDS011;51593;55.714;37.436;2022-08-21T05:21:30;45.70;;;33.80;;
65031;SDS011;51593;55.714;37.436;2022-08-21T05:23:56;45.65;;;33.75;;
65031;SDS011;51593;55.714;37.436;2022-08-21T05:26:22;51.20;;;34.50;;
65031;SDS011;51593;55.714;37.436;2022-08-21T05:28:49;51.55;;;32.83;;
65031;SDS011;51593;55.714;37.436;2022-08-21T05:31:15;52.40;;;34.58;;
65031;SDS011;51593;55.714;37.436;2022-08-21T05:33:40;54.63;;;35.25;;
65031;SDS011;51593;55.714;37.436;2022-08-21T05:36:06;51.53;;;34.63;;
65031;SDS011;51593;55.714;37.436;2022-08-21T05:38:32;50.78;;;33.75;;
65031;SDS011;51593;55.714;37.436;2022-08-21T05:40:58;52.97;;;36.33;;
65031;SDS011;51593;55.714;37.436;2022-08-21T05:43:23;53.00;;;36.70;;
65031;SDS011;51593;55.714;37.436;2022-08-21T05:45:50;53.40;;;37.22;;
65031;SDS011;51593;55.714;37.436;2022-08-21T05:48:17;48.65;;;34.83;;
65031;SDS011;51593;55.714;37.436;2022-08-21T05:50:45;54.58;;;36.35;;
65031;SDS011;51593;55.714;37.436;2022-08-21T05:53:12;60.05;;;38.28;;
65031;SDS011;51593;55.714;37.436;2022-08-21T05:55:38;64.28;;;36.97;;
65031;SDS011;51593;55.714;37.436;2022-08-21T05:58:06;61.28;;;37.10;;
65031;SDS011;51593;55.714;37.436;2022-08-21T06:00:32;51.70;;;34.88;;
65031;SDS011;51593;55.714;37.436;2022-08-21T06:02:58;48.03;;;34.30;;
65031;SDS011;51593;55.714;37.436;2022-08-21T06:05:24;46.30;;;32.35;;
65031;SDS011;51593;55.714;37.436;2022-08-21T06:07:50;48.50;;;33.22;;
65031;SDS011;51593;55.714;37.436;2022-08-21T06:10:16;50.83;;;35.53;;
65031;SDS011;51593;55.714;37.436;2022-08-21T06:12:42;57.80;;;36.33;;
65031;SDS011;51593;55.714;37.436;2022-08-21T06:15:08;56.42;;;34.05;;
65031;SDS011;51593;55.714;37.436;2022-08-21T06:17:34;92.70;;;59.03;;
65031;SDS011;51593;55.714;37.436;2022-08-21T06:20:08;64.13;;;43.75;;
65031;SDS011;51593;55.714;37.436;2022-08-21T06:22:35;53.42;;;36.63;;
65031;SDS011;51593;55.714;37.436;2022-08-21T06:25:01;52.90;;;35.58;;
65031;SDS011;51593;55.714;37.436;2022-08-21T06:27:28;56.75;;;37.25;;
65031;SDS011;51593;55.714;37.436;2022-08-21T06:29:58;51.38;;;34.65;;
65031;SDS011;51593;55.714;37.436;2022-08-21T06:32:24;50.28;;;33.83;;
65031;SDS011;51593;55.714;37.436;2022-08-21T06:34:49;45.58;;;30.52;;
65031;SDS011;51593;55.714;37.436;2022-08-21T06:37:15;50.22;;;30.65;;
65031;SDS011;51593;55.714;37.436;2022-08-21T06:39:42;46.72;;;31.42;;
65031;SDS011;51593;55.714;37.436;2022-08-21T06:42:12;44.45;;;30.35;;
65031;SDS011;51593;55.714;37.436;2022-08-21T06:44:40;45.88;;;29.85;;
65031;SDS011;51593;55.714;37.436;2022-08-21T06:47:06;48.92;;;30.45;;
65031;SDS011;51593;55.714;37.436;2022-08-21T06:49:33;43.92;;;29.45;;
65031;SDS011;51593;55.714;37.436;2022-08-21T06:52:00;41.38;;;27.40;;
65031;SDS011;51593;55.714;37.436;2022-08-21T06:54:26;40.10;;;28.05;;
65031;SDS011;51593;55.714;37.436;2022-08-21T06:56:52;42.50;;;27.50;;
65031;SDS011;51593;55.714;37.436;2022-08-21T06:59:18;40.00;;;28.13;;
65031;SDS011;51593;55.714;37.436;2022-08-21T07:01:44;43.50;;;29.00;;
65031;SDS011;51593;55.714;37.436;2022-08-21T07:04:10;46.28;;;30.27;;
65031;SDS011;51593;55.714;37.436;2022-08-21T07:06:36;44.83;;;29.40;;
65031;SDS011;51593;55.714;37.436;2022-08-21T07:09:02;48.50;;;30.02;;
65031;SDS011;51593;55.714;37.436;2022-08-21T07:11:29;42.03;;;28.92;;
65031;SDS011;51593;55.714;37.436;2022-08-21T07:13:55;43.47;;;29.85;;
65031;SDS011;51593;55.714;37.436;2022-08-21T07:16:21;40.15;;;27.90;;
65031;SDS011;51593;55.714;37.436;2022-08-21T07:18:48;39.58;;;26.50;;
65031;SDS011;51593;55.714;37.436;2022-08-21T07:21:14;39.50;;;27.27;;
65031;SDS011;51593;55.714;37.436;2022-08-21T07:23:42;44.00;;;27.25;;
65031;SDS011;51593;55.714;37.436;2022-08-21T07:26:12;43.03;;;30.45;;
65031;SDS011;51593;55.714;37.436;2022-08-21T07:28:39;42.42;;;27.55;;
65031;SDS011;51593;55.714;37.436;2022-08-21T07:31:05;50.13;;;27.10;;
65031;SDS011;51593;55.714;37.436;2022-08-21T07:33:32;44.30;;;26.02;;
65031;SDS011;51593;55.714;37.436;2022-08-21T07:35:59;39.78;;;27.02;;
65031;SDS011;51593;55.714;37.436;2022-08-21T07:38:25;44.05;;;27.30;;
65031;SDS011;51593;55.714;37.436;2022-08-21T07:40:53;41.22;;;28.45;;
65031;SDS011;51593;55.714;37.436;2022-08-21T07:43:21;45.58;;;27.77;;
65031;SDS011;51593;55.714;37.436;2022-08-21T07:45:47;42.05;;;27.25;;
65031;SDS011;51593;55.714;37.436;2022-08-21T07:48:15;41.80;;;25.48;;
65031;SDS011;51593;55.714;37.436;2022-08-21T07:50:41;39.67;;;24.42;;
65031;SDS011;51593;55.714;37.436;2022-08-21T07:53:09;39.33;;;26.42;;
65031;SDS011;51593;55.714;37.436;2022-08-21T07:55:35;45.05;;;27.08;;
65031;SDS011;51593;55.714;37.436;2022-08-21T07:58:01;37.78;;;26.40;;
65031;SDS011;51593;55.714;37.436;2022-08-21T08:00:27;46.80;;;26.50;;
65031;SDS011;51593;55.714;37.436;2022-08-21T08:02:54;48.13;;;26.48;;
65031;SDS011;51593;55.714;37.436;2022-08-21T08:05:23;38.35;;;26.80;;
65031;SDS011;51593;55.714;37.436;2022-08-21T08:07:51;35.25;;;24.75;;
65031;SDS011;51593;55.714;37.436;2022-08-21T08:10:17;45.60;;;26.73;;
65031;SDS011;51593;55.714;37.436;2022-08-21T08:12:44;45.72;;;27.08;;
65031;SDS011;51593;55.714;37.436;2022-08-21T08:15:18;39.78;;;26.70;;
65031;SDS011;51593;55.714;37.436;2022-08-21T08:17:46;41.00;;;25.23;;
65031;SDS011;51593;55.714;37.436;2022-08-21T08:20:12;42.08;;;24.83;;
65031;SDS011;51593;55.714;37.436;2022-08-21T08:22:40;39.50;;;24.98;;
65031;SDS011;51593;55.714;37.436;2022-08-21T08:25:08;33.05;;;24.83;;
65031;SDS011;51593;55.714;37.436;2022-08-21T08:27:36;34.20;;;23.55;;
65031;SDS011;51593;55.714;37.436;2022-08-21T08:30:03;35.55;;;22.98;;
65031;SDS011;51593;55.714;37.436;2022-08-21T08:32:30;40.80;;;22.90;;
65031;SDS011;51593;55.714;37.436;2022-08-21T08:34:56;38.95;;;23.20;;
65031;SDS011;51593;55.714;37.436;2022-08-21T08:37:27;37.95;;;23.00;;
65031;SDS011;51593;55.714;37.436;2022-08-21T08:39:54;35.78;;;23.85;;
65031;SDS011;51593;55.714;37.436;2022-08-21T08:42:23;37.47;;;25.73;;
65031;SDS011;51593;55.714;37.436;2022-08-21T08:45:16;42.20;;;27.35;;
65031;SDS011;51593;55.714;37.436;2022-08-21T08:47:49;40.78;;;26.20;;
65031;SDS011;51593;55.714;37.436;2022-08-21T08:50:28;39.17;;;26.08;;
65031;SDS011;51593;55.714;37.436;2022-08-21T08:53:05;48.65;;;28.15;;
65031;SDS011;51593;55.714;37.436;2022-08-21T08:55:34;43.63;;;25.73;;
65031;SDS011;51593;55.714;37.436;2022-08-21T08:58:02;43.03;;;26.45;;
65031;SDS011;51593;55.714;37.436;2022-08-21T09:00:28;32.40;;;22.67;;
65031;SDS011;51593;55.714;37.436;2022-08-21T09:02:54;36.65;;;21.65;;
65031;SDS011;51593;55.714;37.436;2022-08-21T09:05:56;58.63;;;28.33;;
65031;SDS011;51593;55.714;37.436;2022-08-21T09:23:07;36.78;;;21.33;;
65031;SDS011;51593;55.714;37.436;2022-08-21T09:25:45;29.20;;;19.42;;
65031;SDS011;51593;55.714;37.436;2022-08-21T09:28:30;31.40;;;19.65;;
65031;SDS011;51593;55.714;37.436;2022-08-21T09:31:26;36.65;;;19.20;;
65031;SDS011;51593;55.714;37.436;2022-08-21T09:34:05;30.00;;;17.55;;
65031;SDS011;51593;55.714;37.436;2022-08-21T09:36:42;33.25;;;18.20;;
65031;SDS011;51593;55.714;37.436;2022-08-21T09:39:10;34.75;;;19.13;;
65031;SDS011;51593;55.714;37.436;2022-08-21T09:41:38;30.00;;;17.48;;
65031;SDS011;51593;55.714;37.436;2022-08-21T09:44:05;29.98;;;18.02;;
65031;SDS011;51593;55.714;37.436;2022-08-21T09:46:32;33.10;;;18.30;;
65031;SDS011;51593;55.714;37.436;2022-08-21T09:48:59;33.22;;;18.90;;
65031;SDS011;51593;55.714;37.436;2022-08-21T09:51:27;36.67;;;20.90;;
65031;SDS011;51593;55.714;37.436;2022-08-21T09:54:08;36.30;;;17.83;;
65031;SDS011;51593;55.714;37.436;2022-08-21T09:56:51;26.90;;;15.80;;
65031;SDS011;51593;55.714;37.436;2022-08-21T09:59:54;30.40;;;16.38;;
65031;SDS011;51593;55.714;37.436;2022-08-21T10:02:28;24.08;;;13.82;;
65031;SDS011;51593;55.714;37.436;2022-08-21T10:04:59;28.02;;;14.07;;
65031;SDS011;51593;55.714;37.436;2022-08-21T10:07:30;30.48;;;14.10;;
65031;SDS011;51593;55.714;37.436;2022-08-21T10:10:02;39.92;;;15.57;;
65031;SDS011;51593;55.714;37.436;2022-08-21T10:20:26;21.88;;;10.10;;
65031;SDS011;51593;55.714;37.436;2022-08-21T10:48:12;21.98;;;9.60;;
65031;SDS011;51593;55.714;37.436;2022-08-21T10:50:48;19.42;;;9.63;;
65031;SDS011;51593;55.714;37.436;2022-08-21T10:56:17;20.73;;;9.20;;
65031;SDS011;51593;55.714;37.436;2022-08-21T10:59:07;18.88;;;9.50;;
65031;SDS011;51593;55.714;37.436;2022-08-21T11:04:31;19.48;;;8.15;;
65031;SDS011;51593;55.714;37.436;2022-08-21T11:09:32;16.25;;;6.28;;
65031;SDS011;51593;55.714;37.436;2022-08-21T11:12:00;14.48;;;5.85;;
65031;SDS011;51593;55.714;37.436;2022-08-21T11:17:59;16.65;;;4.85;;
65031;SDS011;51593;55.714;37.436;2022-08-21T11:23:45;16.10;;;4.10;;
65031;SDS011;51593;55.714;37.436;2022-08-21T11:26:25;15.57;;;4.70;;
65031;SDS011;51593;55.714;37.436;2022-08-21T11:29:00;14.60;;;4.30;;
65031;SDS011;51593;55.714;37.436;2022-08-21T11:35:23;14.80;;;4.65;;
65031;SDS011;51593;55.714;37.436;2022-08-21T11:45:45;18.80;;;4.88;;
65031;SDS011;51593;55.714;37.436;2022-08-21T11:48:30;18.45;;;4.72;;
65031;SDS011;51593;55.714;37.436;2022-08-21T11:51:18;13.40;;;5.75;;
65031;SDS011;51593;55.714;37.436;2022-08-21T11:54:00;15.10;;;5.90;;
65031;SDS011;51593;55.714;37.436;2022-08-21T12:04:56;19.85;;;8.65;;
65031;SDS011;51593;55.714;37.436;2022-08-21T12:07:29;28.42;;;8.73;;
65031;SDS011;51593;55.714;37.436;2022-08-21T12:09:59;23.30;;;9.00;;
65031;SDS011;51593;55.714;37.436;2022-08-21T12:12:33;24.98;;;12.38;;
65031;SDS011;51593;55.714;37.436;2022-08-21T12:15:33;23.50;;;13.05;;
65031;SDS011;51593;55.714;37.436;2022-08-21T12:17:59;26.00;;;14.07;;
65031;SDS011;51593;55.714;37.436;2022-08-21T12:20:44;26.30;;;14.60;;
65031;SDS011;51593;55.714;37.436;2022-08-21T12:23:29;26.65;;;14.63;;
65031;SDS011;51593;55.714;37.436;2022-08-21T12:28:26;26.98;;;14.15;;
65031;SDS011;51593;55.714;37.436;2022-08-21T12:30:55;25.02;;;13.50;;
65031;SDS011;51593;55.714;37.436;2022-08-21T12:33:23;17.88;;;10.35;;
65031;SDS011;51593;55.714;37.436;2022-08-21T12:38:57;18.23;;;9.85;;
65031;SDS011;51593;55.714;37.436;2022-08-21T12:41:30;23.98;;;6.13;;
65031;SDS011;51593;55.714;37.436;2022-08-21T12:44:10;21.10;;;5.40;;
65031;SDS011;51593;55.714;37.436;2022-08-21T12:47:02;12.57;;;4.68;;
65031;SDS011;51593;55.714;37.436;2022-08-21T12:52:34;15.63;;;4.10;;
65031;SDS011;51593;55.714;37.436;2022-08-21T12:55:02;21.70;;;3.40;;
65031;SDS011;51593;55.714;37.436;2022-08-21T12:57:29;18.08;;;3.60;;
65031;SDS011;51593;55.714;37.436;2022-08-21T12:59:56;11.30;;;3.38;;
65031;SDS011;51593;55.714;37.436;2022-08-21T13:02:26;15.95;;;3.28;;
65031;SDS011;51593;55.714;37.436;2022-08-21T13:04:58;17.73;;;3.53;;
65031;SDS011;51593;55.714;37.436;2022-08-21T13:07:29;13.68;;;3.35;;
65031;SDS011;51593;55.714;37.436;2022-08-21T13:10:06;6.95;;;2.63;;
65031;SDS011;51593;55.714;37.436;2022-08-21T13:12:40;12.20;;;3.63;;
65031;SDS011;51593;55.714;37.436;2022-08-21T13:15:06;16.05;;;3.50;;
65031;SDS011;51593;55.714;37.436;2022-08-21T13:17:34;16.48;;;4.43;;
65031;SDS011;51593;55.714;37.436;2022-08-21T13:20:04;14.35;;;4.15;;
65031;SDS011;51593;55.714;37.436;2022-08-21T13:22:32;18.50;;;4.20;;
65031;SDS011;51593;55.714;37.436;2022-08-21T13:25:02;15.07;;;4.00;;
65031;SDS011;51593;55.714;37.436;2022-08-21T13:27:29;12.25;;;4.43;;
65031;SDS011;51593;55.714;37.436;2022-08-21T13:30:06;14.63;;;4.70;;
65031;SDS011;51593;55.714;37.436;2022-08-21T13:32:37;19.83;;;4.97;;
65031;SDS011;51593;55.714;37.436;2022-08-21T13:35:10;12.27;;;5.13;;
65031;SDS011;51593;55.714;37.436;2022-08-21T13:37:48;20.35;;;5.10;;
65031;SDS011;51593;55.714;37.436;2022-08-21T13:40:19;18.25;;;4.65;;
65031;SDS011;51593;55.714;37.436;2022-08-21T13:42:51;18.95;;;4.90;;
65031;SDS011;51593;55.714;37.436;2022-08-21T13:45:30;21.45;;;5.30;;
65031;SDS011;51593;55.714;37.436;2022-08-21T13:47:56;14.63;;;5.07;;
65031;SDS011;51593;55.714;37.436;2022-08-21T13:50:24;16.13;;;4.82;;
65031;SDS011;51593;55.714;37.436;2022-08-21T13:53:20;16.15;;;4.55;;
65031;SDS011;51593;55.714;37.436;2022-08-21T13:55:49;11.23;;;4.47;;
65031;SDS011;51593;55.714;37.436;2022-08-21T13:58:24;16.80;;;4.88;;
65031;SDS011;51593;55.714;37.436;2022-08-21T14:00:52;15.57;;;4.80;;
65031;SDS011;51593;55.714;37.436;2022-08-21T14:08:47;17.13;;;4.57;;
65031;SDS011;51593;55.714;37.436;2022-08-21T14:11:17;18.90;;;4.63;;
65031;SDS011;51593;55.714;37.436;2022-08-21T14:13:44;13.27;;;4.47;;
65031;SDS011;51593;55.714;37.436;2022-08-21T14:16:17;19.27;;;3.92;;
65031;SDS011;51593;55.714;37.436;2022-08-21T14:21:39;16.38;;;4.22;;
65031;SDS011;51593;55.714;37.436;2022-08-21T14:24:12;18.38;;;4.50;;
65031;SDS011;51593;55.714;37.436;2022-08-21T14:26:51;12.63;;;4.85;;
65031;SDS011;51593;55.714;37.436;2022-08-21T14:29:37;21.42;;;4.90;;
65031;SDS011;51593;55.714;37.436;2022-08-21T14:32:08;15.68;;;5.18;;
65031;SDS011;51593;55.714;37.436;2022-08-21T14:34:39;22.27;;;5.78;;
65031;SDS011;51593;55.714;37.436;2022-08-21T14:37:05;16.17;;;6.82;;
65031;SDS011;51593;55.714;37.436;2022-08-21T14:39:30;23.27;;;6.82;;
65031;SDS011;51593;55.714;37.436;2022-08-21T14:41:57;21.38;;;7.15;;
65031;SDS011;51593;55.714;37.436;2022-08-21T14:44:23;22.33;;;7.20;;
65031;SDS011;51593;55.714;37.436;2022-08-21T14:46:50;17.85;;;6.93;;
65031;SDS011;51593;55.714;37.436;2022-08-21T14:49:16;18.10;;;7.32;;
65031;SDS011;51593;55.714;37.436;2022-08-21T14:51:43;22.02;;;7.10;;
65031;SDS011;51593;55.714;37.436;2022-08-21T14:54:09;23.65;;;6.90;;
65031;SDS011;51593;55.714;37.436;2022-08-21T14:56:34;17.33;;;6.20;;
65031;SDS011;51593;55.714;37.436;2022-08-21T14:59:09;17.92;;;6.35;;
65031;SDS011;51593;55.714;37.436;2022-08-21T15:01:36;14.90;;;5.63;;
65031;SDS011;51593;55.714;37.436;2022-08-21T15:04:03;18.73;;;5.95;;
65031;SDS011;51593;55.714;37.436;2022-08-21T15:06:30;17.45;;;6.05;;
65031;SDS011;51593;55.714;37.436;2022-08-21T15:08:57;10.90;;;5.30;;
65031;SDS011;51593;55.714;37.436;2022-08-21T15:11:23;13.15;;;5.03;;
65031;SDS011;51593;55.714;37.436;2022-08-21T15:13:55;15.73;;;5.47;;
65031;SDS011;51593;55.714;37.436;2022-08-21T15:16:22;16.67;;;4.88;;
65031;SDS011;51593;55.714;37.436;2022-08-21T15:18:49;15.27;;;4.85;;
65031;SDS011;51593;55.714;37.436;2022-08-21T15:21:14;12.75;;;4.50;;
65031;SDS011;51593;55.714;37.436;2022-08-21T15:23:40;16.25;;;4.30;;
65031;SDS011;51593;55.714;37.436;2022-08-21T15:26:06;15.68;;;4.53;;
65031;SDS011;51593;55.714;37.436;2022-08-21T15:28:34;14.23;;;4.15;;
65031;SDS011;51593;55.714;37.436;2022-08-21T15:31:03;11.80;;;3.70;;
65031;SDS011;51593;55.714;37.436;2022-08-21T15:33:30;11.77;;;4.13;;
65031;SDS011;51593;55.714;37.436;2022-08-21T15:35:56;14.50;;;3.50;;
65031;SDS011;51593;55.714;37.436;2022-08-21T15:38:23;9.50;;;3.42;;
65031;SDS011;51593;55.714;37.436;2022-08-21T15:40:49;16.45;;;4.20;;
65031;SDS011;51593;55.714;37.436;2022-08-21T15:43:28;14.65;;;3.10;;
65031;SDS011;51593;55.714;37.436;2022-08-21T15:45:58;9.32;;;3.10;;
65031;SDS011;51593;55.714;37.436;2022-08-21T15:48:24;10.85;;;2.90;;
65031;SDS011;51593;55.714;37.436;2022-08-21T15:50:50;9.82;;;3.10;;
65031;SDS011;51593;55.714;37.436;2022-08-21T15:53:16;9.38;;;2.80;;
65031;SDS011;51593;55.714;37.436;2022-08-21T15:55:41;12.57;;;3.08;;
65031;SDS011;51593;55.714;37.436;2022-08-21T15:58:07;11.00;;;2.95;;
65031;SDS011;51593;55.714;37.436;2022-08-21T16:00:38;10.32;;;2.47;;
65031;SDS011;51593;55.714;37.436;2022-08-21T16:03:05;7.90;;;2.67;;
65031;SDS011;51593;55.714;37.436;2022-08-21T16:05:32;10.07;;;2.60;;
65031;SDS011;51593;55.714;37.436;2022-08-21T16:08:37;9.00;;;2.45;;